createdAt,value
2018-03-11T00:00:04.144Z,88.93
2018-03-11T00:01:14.239Z,88.93
2018-03-11T00:02:24.066Z,88.64
2018-03-11T00:03:34.186Z,89.6
2018-03-11T00:04:44.266Z,88.74
2018-03-11T00:05:54.101Z,89.03
2018-03-11T00:07:04.172Z,89.12
2018-03-11T00:08:14.232Z,88.93
2018-03-11T00:09:24.283Z,89.03
2018-03-11T00:10:33.829Z,88.84
2018-03-11T00:11:43.936Z,88.55
2018-03-11T00:12:54.053Z,88.64
2018-03-11T00:14:03.862Z,89.12
2018-03-11T00:15:13.401Z,88.93
2018-03-11T00:16:23.483Z,89.12
2018-03-11T00:17:33.564Z,88.64
2018-03-11T00:18:43.685Z,88.74
2018-03-11T00:19:53.507Z,88.93
2018-03-11T00:21:02.792Z,89.03
2018-03-11T00:22:12.913Z,89.12
2018-03-11T00:23:22.719Z,89.03
2018-03-11T00:24:32.841Z,89.03
2018-03-11T00:25:42.664Z,88.93
2018-03-11T00:26:52.474Z,88.74
2018-03-11T00:28:02.283Z,88.84
2018-03-11T00:29:12.368Z,88.84
2018-03-11T00:30:22.553Z,88.64
2018-03-11T00:31:32.361Z,89.03
2018-03-11T00:32:42.452Z,88.93
2018-03-11T00:33:52.526Z,89.03
2018-03-11T00:35:02.326Z,89.03
2018-03-11T00:36:12.184Z,88.93
2018-03-11T00:37:22.256Z,89.12
2018-03-11T00:38:32.076Z,88.93
2018-03-11T00:39:41.902Z,88.84
2018-03-11T00:40:51.441Z,89.22
2018-03-11T00:42:01.517Z,89.07
2018-03-11T00:43:11.123Z,89.03
2018-03-11T00:44:21.006Z,89.22
2018-03-11T00:45:30.823Z,89.17
2018-03-11T00:46:40.360Z,89.26
2018-03-11T00:47:50.493Z,88.89
2018-03-11T00:49:00.563Z,88.79
2018-03-11T00:50:10.375Z,88.89
2018-03-11T00:51:20.436Z,89.07
2018-03-11T00:52:30.512Z,89.07
2018-03-11T00:53:40.363Z,89.17
2018-03-11T00:54:50.239Z,88.89
2018-03-11T00:55:59.893Z,88.98
2018-03-11T00:57:09.685Z,88.89
2018-03-11T00:58:19.767Z,88.64
2018-03-11T00:59:29.838Z,88.7
2018-03-11T01:00:39.635Z,88.45
2018-03-11T01:01:49.702Z,88.41
2018-03-11T01:02:59.759Z,88.79
2018-03-11T01:04:09.839Z,88.7
2018-03-11T01:05:19.381Z,88.89
2018-03-11T01:06:29.175Z,88.89
2018-03-11T01:07:38.985Z,88.98
2018-03-11T01:08:49.103Z,88.89
2018-03-11T01:09:59.183Z,88.79
2018-03-11T01:11:09.028Z,88.98
2018-03-11T01:12:19.327Z,89.07
2018-03-11T01:13:28.864Z,89.36
2018-03-11T01:14:38.671Z,89.17
2018-03-11T01:15:48.492Z,88.89
2018-03-11T01:16:58.332Z,88.89
2018-03-11T01:18:08.389Z,88.98
2018-03-11T01:19:18.439Z,88.89
2018-03-11T01:20:28.527Z,88.98
2018-03-11T01:21:38.631Z,88.89
2018-03-11T01:22:48.732Z,88.98
2018-03-11T01:23:58.795Z,89.07
2018-03-11T01:25:08.592Z,89.03
2018-03-11T01:26:18.678Z,88.7
2018-03-11T01:27:28.525Z,88.84
2018-03-11T01:28:38.388Z,88.84
2018-03-11T01:29:48.185Z,88.84
2018-03-11T01:30:57.991Z,89.03
2018-03-11T01:32:08.067Z,89.22
2018-03-11T01:33:17.867Z,88.65
2018-03-11T01:34:27.404Z,88.93
2018-03-11T01:35:37.200Z,88.84
2018-03-11T01:36:47.010Z,89.13
2018-03-11T01:37:57.095Z,89.13
2018-03-11T01:39:07.159Z,89.03
2018-03-11T01:40:17.237Z,89.22
2018-03-11T01:41:27.301Z,89.22
2018-03-11T01:42:37.112Z,89.22
2018-03-11T01:43:46.915Z,89.13
2018-03-11T01:44:56.716Z,88.65
2018-03-11T01:46:06.855Z,88.65
2018-03-11T01:47:15.877Z,89.03
2018-03-11T01:48:25.673Z,88.84
2018-03-11T01:49:35.475Z,88.84
2018-03-11T01:50:45.552Z,88.46
2018-03-11T01:51:55.673Z,88.75
2018-03-11T01:53:05.460Z,88.46
2018-03-11T01:54:15.261Z,88.46
2018-03-11T01:55:25.343Z,88.18
2018-03-11T01:56:35.405Z,88.46
2018-03-11T01:57:45.528Z,88.46
2018-03-11T01:58:55.596Z,88.56
2018-03-11T02:00:05.434Z,88.18
2018-03-11T02:01:14.971Z,88.08
2018-03-11T02:02:24.511Z,87.98
2018-03-11T02:03:34.295Z,88.08
2018-03-11T02:04:44.351Z,88.08
2018-03-11T02:05:54.427Z,88.08
2018-03-11T02:07:04.495Z,88.27
2018-03-11T02:08:14.036Z,88.18
2018-03-11T02:09:23.829Z,88.27
2018-03-11T02:10:33.885Z,88.27
2018-03-11T02:11:43.696Z,88.18
2018-03-11T02:12:53.748Z,88.27
2018-03-11T02:14:03.551Z,88.27
2018-03-11T02:15:13.073Z,88.27
2018-03-11T02:16:23.123Z,87.98
2018-03-11T02:17:33.176Z,87.98
2018-03-11T02:18:43.003Z,87.98
2018-03-11T02:19:53.069Z,88.18
2018-03-11T02:21:03.125Z,88.27
2018-03-11T02:22:12.919Z,88.08
2018-03-11T02:23:22.975Z,87.98
2018-03-11T02:24:33.038Z,88.18
2018-03-11T02:25:42.845Z,88.08
2018-03-11T02:26:52.922Z,88.08
2018-03-11T02:28:02.973Z,88.08
2018-03-11T02:29:12.779Z,88.18
2018-03-11T02:30:22.840Z,88.18
2018-03-11T02:31:32.903Z,88.18
2018-03-11T02:32:42.985Z,88.27
2018-03-11T02:33:52.811Z,88.18
2018-03-11T02:35:02.346Z,88.08
2018-03-11T02:36:12.166Z,88.65
2018-03-11T02:37:22.290Z,88.27
2018-03-11T02:38:32.373Z,88.46
2018-03-11T02:39:42.445Z,88.46
2018-03-11T02:40:52.246Z,88.46
2018-03-11T02:42:01.776Z,88.46
2018-03-11T02:43:11.876Z,88.18
2018-03-11T02:44:21.737Z,88.37
2018-03-11T02:45:31.530Z,88.18
2018-03-11T02:46:41.335Z,88.27
2018-03-11T02:47:51.131Z,88.75
2018-03-11T02:49:00.934Z,88.51
2018-03-11T02:50:10.762Z,88.37
2018-03-11T02:51:20.566Z,88.42
2018-03-11T02:52:30.659Z,88.23
2018-03-11T02:53:40.730Z,88.79
2018-03-11T02:54:50.522Z,88.79
2018-03-11T02:56:00.385Z,88.7
2018-03-11T02:57:10.525Z,88.99
2018-03-11T02:58:20.552Z,88.99
2018-03-11T02:59:30.349Z,88.99
2018-03-11T03:00:39.874Z,89.18
2018-03-11T03:01:49.723Z,89.18
2018-03-11T03:02:59.786Z,88.99
2018-03-11T03:04:09.863Z,89.14
2018-03-11T03:05:19.927Z,88.89
2018-03-11T03:06:29.464Z,89.08
2018-03-11T03:07:39.578Z,88.94
2018-03-11T03:39:34.729Z,85.68
2018-03-11T03:40:44.778Z,86.16
2018-03-11T03:41:54.828Z,87.06
2018-03-11T03:43:04.367Z,88.24
2018-03-11T03:44:14.172Z,88.72
2018-03-11T03:45:23.705Z,89.39
2018-03-11T03:46:33.782Z,89.95
2018-03-11T03:47:43.584Z,89.76
2018-03-11T03:48:53.641Z,89.67
2018-03-11T03:50:03.708Z,89.67
2018-03-11T03:51:13.557Z,90
2018-03-11T03:52:23.086Z,90.09
2018-03-11T03:53:32.888Z,90.09
2018-03-11T03:54:42.414Z,89.62
2018-03-11T03:55:51.674Z,89.81
2018-03-11T03:57:01.728Z,90.09
2018-03-11T03:58:11.528Z,90.14
2018-03-11T03:59:21.072Z,90.05
2018-03-11T04:00:30.873Z,89.47
2018-03-11T04:01:40.414Z,89.38
2018-03-11T04:02:49.939Z,89.38
2018-03-11T04:04:00.006Z,89.47
2018-03-11T04:05:10.075Z,89.09
2018-03-11T04:06:19.882Z,89.04
2018-03-11T04:07:29.951Z,88.67
2018-03-11T04:08:39.754Z,88.76
2018-03-11T04:09:49.827Z,88.67
2018-03-11T04:10:59.622Z,88.95
2018-03-11T04:12:09.155Z,89.04
2018-03-11T04:13:19.221Z,88.95
2018-03-11T04:14:29.079Z,88.95
2018-03-11T04:15:39.163Z,88.85
2018-03-11T04:16:48.982Z,88.67
2018-03-11T04:17:59.046Z,88.47
2018-03-11T04:19:08.859Z,88.67
2018-03-11T04:20:18.653Z,88.42
2018-03-11T04:21:28.181Z,88.47
2018-03-11T04:22:37.721Z,88.42
2018-03-11T04:23:47.258Z,88.71
2018-03-11T04:24:57.049Z,88.42
2018-03-11T04:26:07.168Z,88.33
2018-03-11T04:27:16.986Z,88.33
2018-03-11T04:28:26.794Z,88.52
2018-03-11T04:29:36.595Z,88.33
2018-03-11T04:30:46.137Z,88.23
2018-03-11T04:31:55.928Z,88.19
2018-03-11T04:33:05.738Z,88.47
2018-03-11T04:34:15.272Z,88.28
2018-03-11T04:35:25.062Z,88.47
2018-03-11T04:36:35.122Z,88.23
2018-03-11T04:37:44.702Z,88.52
2018-03-11T04:38:54.512Z,88.52
2018-03-11T04:40:04.312Z,88.33
2018-03-11T04:41:14.401Z,88.33
2018-03-11T04:42:24.456Z,88.09
2018-03-11T04:43:34.252Z,88.28
2018-03-11T04:44:44.037Z,88.19
2018-03-11T04:45:54.100Z,88.42
2018-03-11T04:47:04.169Z,88.47
2018-03-11T04:48:14.228Z,88.19
2018-03-11T04:49:24.337Z,88.19
2018-03-11T04:50:33.891Z,88.28
2018-03-11T04:51:43.951Z,88.19
2018-03-11T04:52:53.489Z,87.9
2018-03-11T04:54:03.552Z,88.71
2018-03-11T04:55:13.622Z,88.33
2018-03-11T04:56:23.690Z,88.09
2018-03-11T04:57:33.490Z,88.71
2018-03-11T04:58:43.541Z,88.28
2018-03-11T04:59:53.327Z,88.38
2018-03-11T05:01:03.439Z,88.19
2018-03-11T05:02:13.502Z,87.9
2018-03-11T05:03:23.031Z,88.09
2018-03-11T05:04:33.085Z,88
2018-03-11T05:05:43.152Z,88.28
2018-03-11T05:06:53.215Z,88.38
2018-03-11T05:08:03.279Z,88.38
2018-03-11T05:09:13.342Z,88.38
2018-03-11T05:10:23.490Z,87.9
2018-03-11T05:11:33.539Z,88.47
2018-03-11T05:12:43.076Z,88.57
2018-03-11T05:13:52.865Z,88.57
2018-03-11T05:15:02.928Z,88.28
2018-03-11T05:16:12.986Z,88.28
2018-03-11T05:17:23.042Z,88.09
2018-03-11T05:18:32.616Z,88.19
2018-03-11T05:19:42.430Z,88
2018-03-11T05:20:52.285Z,87.9
2018-03-11T05:22:02.369Z,88.28
2018-03-11T05:23:12.422Z,88.28
2018-03-11T05:24:22.543Z,88.47
2018-03-11T05:25:32.610Z,88.47
2018-03-11T05:26:42.424Z,88.47
2018-03-11T05:27:52.235Z,87.9
2018-03-11T05:29:02.352Z,87.81
2018-03-11T05:30:12.149Z,87.81
2018-03-11T05:31:22.232Z,87.81
2018-03-11T05:32:32.283Z,87.81
2018-03-11T05:33:41.821Z,87.81
2018-03-11T05:34:51.882Z,87.81
2018-03-11T05:36:01.945Z,87.81
2018-03-11T05:37:11.729Z,87.9
2018-03-11T05:38:21.835Z,88.09
2018-03-11T05:39:31.895Z,88
2018-03-11T05:40:41.758Z,88.09
2018-03-11T05:41:51.809Z,87.81
2018-03-11T05:43:01.856Z,87.81
2018-03-11T05:44:11.381Z,87.71
2018-03-11T05:45:21.450Z,87.9
2018-03-11T05:46:31.506Z,87.52
2018-03-11T05:47:41.555Z,87.57
2018-03-11T05:48:51.343Z,87.76
2018-03-11T05:50:01.189Z,87.52
2018-03-11T05:51:11.270Z,87.66
2018-03-11T05:52:21.312Z,87.76
2018-03-11T05:53:31.432Z,87.76
2018-03-11T05:54:41.249Z,87.85
2018-03-11T05:55:51.351Z,87.76
2018-03-11T05:57:01.155Z,87.38
2018-03-11T05:58:10.941Z,87.95
2018-03-11T05:59:21.071Z,87.57
2018-03-11T06:00:31.287Z,87.28
2018-03-11T06:01:41.081Z,87.38
2018-03-11T06:02:50.878Z,87.19
2018-03-11T06:04:00.947Z,86.99
2018-03-11T06:05:10.744Z,87.47
2018-03-11T06:06:20.272Z,87.52
2018-03-11T06:07:30.387Z,87.42
2018-03-11T06:08:40.438Z,87.42
2018-03-11T06:09:50.241Z,87.52
2018-03-11T06:11:00.341Z,87.42
2018-03-11T06:12:09.876Z,87.52
2018-03-11T06:13:19.705Z,87.42
2018-03-11T06:14:29.746Z,87.13
2018-03-11T06:15:39.545Z,87.23
2018-03-11T06:16:49.647Z,87.42
2018-03-11T06:17:59.735Z,87.52
2018-03-11T06:19:09.595Z,87.32
2018-03-11T06:20:19.134Z,87.04
2018-03-11T06:21:28.935Z,87.42
2018-03-11T06:22:39.001Z,87.23
2018-03-11T06:23:48.802Z,87.42
2018-03-11T06:24:58.360Z,87.32
2018-03-11T06:26:08.422Z,87.32
2018-03-11T06:27:18.527Z,87.42
2018-03-11T06:28:28.062Z,87.32
2018-03-11T06:29:38.124Z,87.61
2018-03-11T06:30:47.923Z,87.13
2018-03-11T06:31:57.470Z,87.13
2018-03-11T06:33:07.537Z,87.13
2018-03-11T06:34:17.588Z,87.52
2018-03-11T06:35:27.652Z,87.61
2018-03-11T06:36:37.697Z,87.37
2018-03-11T06:37:47.224Z,87.61
2018-03-11T06:38:57.378Z,87.65
2018-03-11T06:40:07.219Z,87.46
2018-03-11T06:41:17.276Z,87.65
2018-03-11T06:42:26.816Z,87.46
2018-03-11T06:43:36.862Z,87.65
2018-03-11T06:44:46.426Z,87.65
2018-03-11T06:45:56.221Z,86.99
2018-03-11T06:47:06.016Z,87.46
2018-03-11T06:48:16.091Z,87.08
2018-03-11T06:49:26.145Z,87.27
2018-03-11T06:50:35.692Z,87.08
2018-03-11T06:51:45.754Z,87.18
2018-03-11T06:52:55.842Z,86.99
2018-03-11T06:54:05.637Z,87.32
2018-03-11T06:55:15.710Z,86.94
2018-03-11T06:56:25.263Z,87.32
2018-03-11T06:57:34.534Z,87.13
2018-03-11T06:58:44.344Z,87.03
2018-03-11T06:59:53.876Z,87.51
2018-03-11T07:01:03.668Z,87.32
2018-03-11T07:02:13.773Z,87.23
2018-03-11T07:03:23.589Z,87.13
2018-03-11T07:04:33.129Z,86.94
2018-03-11T07:05:43.201Z,87.23
2018-03-11T07:06:52.494Z,87.17
2018-03-11T07:08:02.669Z,87.32
2018-03-11T07:09:12.742Z,87.27
2018-03-11T07:10:22.837Z,87.17
2018-03-11T07:11:32.926Z,87.17
2018-03-11T07:12:43.007Z,87.27
2018-03-11T07:13:53.119Z,86.98
2018-03-11T07:15:03.190Z,87.07
2018-03-11T07:16:12.476Z,87.17
2018-03-11T07:17:22.675Z,87.36
2018-03-11T07:18:32.732Z,87.17
2018-03-11T07:19:41.993Z,87.27
2018-03-11T07:20:52.047Z,87.36
2018-03-11T07:22:02.110Z,87.4
2018-03-11T07:23:11.958Z,87.6
2018-03-11T07:24:21.503Z,87.21
2018-03-11T07:25:31.674Z,87.4
2018-03-11T07:26:41.464Z,87.6
2018-03-11T07:27:51.261Z,87.5
2018-03-11T07:29:01.335Z,87.12
2018-03-11T07:30:10.893Z,87.12
2018-03-11T07:31:20.773Z,87.07
2018-03-11T07:32:30.577Z,86.98
2018-03-11T07:33:40.376Z,87.64
2018-03-11T07:34:50.434Z,87.54
2018-03-11T07:36:00.504Z,86.98
2018-03-11T07:37:10.040Z,86.88
2018-03-11T07:38:19.581Z,87.83
2018-03-11T07:39:29.411Z,87.74
2018-03-11T07:40:38.949Z,87.64
2018-03-11T07:41:49.018Z,87.59
2018-03-11T07:42:59.088Z,86.92
2018-03-11T07:44:09.186Z,87.11
2018-03-11T07:45:18.992Z,87.59
2018-03-11T07:46:29.071Z,87.59
2018-03-11T07:47:39.120Z,87.21
2018-03-11T07:48:49.253Z,87.02
2018-03-11T07:49:59.314Z,87.15
2018-03-11T07:51:09.425Z,87.44
2018-03-11T07:52:19.220Z,87.44
2018-03-11T07:53:29.290Z,87.54
2018-03-11T07:54:39.438Z,87.06
2018-03-11T07:55:49.550Z,86.68
2018-03-11T07:56:59.364Z,86.96
2018-03-11T07:58:08.918Z,86.91
2018-03-11T07:59:18.697Z,87.39
2018-03-11T08:00:28.777Z,87.01
2018-03-11T08:01:38.570Z,86.82
2018-03-11T08:02:48.365Z,87.1
2018-03-11T08:03:58.445Z,86.53
2018-03-11T08:05:08.256Z,86.76
2018-03-11T08:06:18.035Z,86.76
2018-03-11T08:07:28.112Z,86.76
2018-03-11T08:08:38.181Z,86.86
2018-03-11T08:09:48.269Z,86.76
2018-03-11T08:10:58.076Z,86.9
2018-03-11T08:12:08.155Z,86.8
2018-03-11T08:13:18.232Z,86.8
2018-03-11T08:14:28.331Z,87.09
2018-03-11T08:15:38.347Z,86.9
2018-03-11T08:16:48.182Z,86.8
2018-03-11T08:17:57.720Z,86.9
2018-03-11T08:19:07.541Z,86.8
2018-03-11T08:20:17.416Z,86.85
2018-03-11T08:21:27.338Z,86.85
2018-03-11T08:22:36.631Z,86.94
2018-03-11T08:23:46.441Z,87.04
2018-03-11T08:24:56.527Z,87.04
2018-03-11T08:26:06.620Z,87.18
2018-03-11T08:27:16.697Z,86.9
2018-03-11T08:28:26.788Z,86.99
2018-03-11T08:29:36.878Z,86.9
2018-03-11T08:30:46.703Z,87.27
2018-03-11T08:31:56.523Z,87.27
2018-03-11T08:33:06.346Z,87.47
2018-03-11T08:34:16.436Z,87.18
2018-03-11T08:35:26.516Z,87.27
2018-03-11T08:36:36.070Z,87.23
2018-03-11T08:37:46.150Z,86.94
2018-03-11T08:38:55.971Z,87.41
2018-03-11T08:40:06.038Z,87.99
2018-03-11T08:41:16.105Z,87.56
2018-03-11T08:42:25.924Z,87.95
2018-03-11T08:43:35.807Z,87.76
2018-03-11T08:44:45.891Z,88.04
2018-03-11T08:45:55.970Z,88.04
2018-03-11T08:47:06.066Z,87.85
2018-03-11T08:48:15.876Z,87.99
2018-03-11T08:49:26.046Z,87.61
2018-03-11T08:50:35.613Z,87.99
2018-03-11T08:51:45.726Z,87.99
2018-03-11T08:52:55.872Z,87.32
2018-03-11T08:54:05.773Z,87.41
2018-03-11T08:55:15.588Z,87.17
2018-03-11T08:56:25.666Z,87.08
2018-03-11T08:57:35.481Z,86.98
2018-03-11T08:58:45.569Z,87.17
2018-03-11T08:59:55.382Z,87.21
2018-03-11T09:01:04.996Z,87.7
2018-03-11T09:02:14.801Z,87.12
2018-03-11T09:03:24.626Z,86.83
2018-03-11T09:04:34.733Z,86.74
2018-03-11T09:05:44.539Z,86.88
2018-03-11T09:06:54.709Z,86.88
2018-03-11T09:08:04.558Z,86.78
2018-03-11T09:09:14.633Z,86.78
2018-03-11T09:10:24.797Z,86.97
2018-03-11T09:11:35.184Z,86.82
2018-03-11T09:12:45.308Z,86.78
2018-03-11T09:13:55.127Z,86.88
2018-03-11T09:15:05.220Z,86.72
2018-03-11T09:16:15.047Z,86.82
2018-03-11T09:17:25.122Z,87.21
2018-03-11T09:18:34.694Z,86.82
2018-03-11T09:19:44.499Z,87.11
2018-03-11T09:20:54.568Z,86.92
2018-03-11T09:22:04.374Z,87.21
2018-03-11T09:23:14.464Z,87.3
2018-03-11T09:24:24.004Z,88.31
2018-03-11T09:25:33.803Z,87.64
2018-03-11T09:26:43.924Z,88.31
2018-03-11T09:27:54.059Z,87.16
2018-03-11T09:29:03.594Z,87.55
2018-03-11T09:30:13.403Z,88.12
2018-03-11T09:31:23.230Z,87.74
2018-03-11T09:32:33.324Z,87.93
2018-03-11T09:33:43.433Z,88.22
2018-03-11T09:34:53.366Z,88.6
2018-03-11T09:36:03.311Z,88.56
2018-03-11T09:37:13.427Z,88.84
2018-03-11T09:38:23.296Z,88.37
2018-03-11T09:39:32.602Z,87.7
2018-03-11T09:40:42.420Z,87.45
2018-03-11T09:41:52.593Z,88.27
2018-03-11T09:43:02.391Z,88.08
2018-03-11T09:44:12.501Z,87.7
2018-03-11T09:45:22.585Z,87.5
2018-03-11T09:46:32.693Z,87.16
2018-03-11T09:47:42.862Z,87.45
2018-03-11T09:48:52.960Z,87.35
2018-03-11T09:50:03.057Z,88.17
2018-03-11T09:51:13.165Z,88.37
2018-03-11T09:52:22.990Z,87.7
2018-03-11T09:53:32.915Z,87.88
2018-03-11T09:54:42.739Z,87.55
2018-03-11T09:55:52.808Z,87.26
2018-03-11T09:57:03.134Z,87.88
2018-03-11T09:58:13.223Z,88.08
2018-03-11T09:59:23.112Z,87.98
2018-03-11T10:00:32.425Z,88.37
2018-03-11T10:01:42.530Z,87.88
2018-03-11T10:02:52.634Z,88.08
2018-03-11T10:04:02.468Z,87.88
2018-03-11T10:05:12.338Z,88.08
2018-03-11T10:06:22.175Z,88.08
2018-03-11T10:07:32.304Z,87.6
2018-03-11T10:08:41.891Z,87.07
2018-03-11T10:09:51.733Z,87.07
2018-03-11T10:11:01.868Z,87.26
2018-03-11T10:12:11.960Z,87.07
2018-03-11T10:13:22.034Z,87.16
2018-03-11T10:14:32.215Z,87.26
2018-03-11T10:15:42.018Z,87.35
2018-03-11T10:16:51.923Z,87.45
2018-03-11T10:18:01.758Z,87.35
2018-03-11T10:19:11.572Z,87.45
2018-03-11T10:20:21.129Z,87.45
2018-03-11T10:21:31.197Z,87.31
2018-03-11T10:22:41.300Z,87.64
2018-03-11T10:23:51.095Z,87.07
2018-03-11T10:25:00.914Z,87.26
2018-03-11T10:26:10.723Z,86.97
2018-03-11T10:27:20.522Z,86.72
2018-03-11T10:28:30.685Z,86.92
2018-03-11T10:29:40.756Z,86.92
2018-03-11T10:30:50.571Z,87.01
2018-03-11T10:32:00.389Z,86.92
2018-03-11T10:33:09.931Z,86.1
2018-03-11T10:34:19.249Z,85.42
2018-03-11T10:35:29.346Z,85.18
2018-03-11T10:36:38.956Z,85.28
2018-03-11T10:37:48.556Z,85.95
2018-03-11T10:38:58.664Z,85.75
2018-03-11T10:40:08.273Z,85.66
2018-03-11T10:41:18.356Z,86.48
2018-03-11T10:42:27.934Z,86.87
2018-03-11T10:43:37.745Z,86.77
2018-03-11T10:44:47.024Z,87.35
2018-03-11T10:45:56.892Z,87.15
2018-03-11T10:47:06.700Z,87.15
2018-03-11T10:48:16.522Z,87.21
2018-03-11T10:49:26.595Z,87.21
2018-03-11T10:50:36.457Z,86.77
2018-03-11T10:51:46.688Z,86.96
2018-03-11T10:52:56.779Z,86.77
2018-03-11T10:54:06.836Z,86.96
2018-03-11T10:55:16.900Z,86.68
2018-03-11T10:56:26.780Z,85.75
2018-03-11T10:57:36.125Z,86.05
2018-03-11T10:58:45.984Z,85.51
2018-03-11T10:59:55.854Z,86.09
2018-03-11T11:01:05.940Z,85.89
2018-03-11T11:02:15.750Z,85.89
2018-03-11T11:03:25.768Z,85.13
2018-03-11T11:04:35.321Z,85.27
2018-03-11T11:05:45.123Z,85.27
2018-03-11T11:06:55.211Z,85.65
2018-03-11T11:08:05.302Z,85.41
2018-03-11T11:09:14.863Z,85.46
2018-03-11T11:10:24.680Z,85.07
2018-03-11T11:11:34.492Z,85.55
2018-03-11T11:12:44.036Z,85.55
2018-03-11T11:13:53.859Z,85.17
2018-03-11T11:15:03.731Z,84.92
2018-03-11T11:16:13.838Z,84.06
2018-03-11T11:17:23.927Z,84.1
2018-03-11T11:18:34.055Z,83.52
2018-03-11T11:19:44.163Z,83.08
2018-03-11T11:20:54.268Z,82.79
2018-03-11T11:22:03.830Z,83.28
2018-03-11T11:23:13.910Z,84.14
2018-03-11T11:24:24.014Z,84.62
2018-03-11T11:25:34.165Z,85.1
2018-03-11T11:26:44.084Z,85.25
2018-03-11T11:27:54.154Z,85.83
2018-03-11T11:29:03.982Z,85.88
2018-03-11T11:30:14.069Z,86.18
2018-03-11T11:31:23.885Z,86.56
2018-03-11T11:32:33.437Z,86.75
2018-03-11T11:33:43.535Z,86.71
2018-03-11T11:34:53.596Z,86.36
2018-03-11T11:36:03.407Z,87.04
2018-03-11T11:37:13.489Z,86.36
2018-03-11T11:38:23.404Z,86.56
2018-03-11T11:39:33.230Z,86.46
2018-03-11T11:40:43.315Z,86.08
2018-03-11T11:41:53.402Z,85.69
2018-03-11T11:43:03.473Z,85.78
2018-03-11T11:44:13.653Z,86.08
2018-03-11T11:45:23.744Z,85.98
2018-03-11T11:46:33.566Z,86.46
2018-03-11T11:47:43.379Z,86.27
2018-03-11T11:48:53.329Z,86.75
2018-03-11T11:50:03.465Z,85.98
2018-03-11T11:51:13.538Z,85.78
2018-03-11T11:52:23.123Z,86.22
2018-03-11T11:53:33.229Z,86.12
2018-03-11T11:54:42.766Z,85.54
2018-03-11T11:55:52.325Z,85.25
2018-03-11T11:57:02.386Z,85.39
2018-03-11T11:58:11.969Z,85.3
2018-03-11T11:59:22.089Z,85.78
2018-03-11T12:00:32.180Z,85.87
2018-03-11T12:01:42.251Z,85.58
2018-03-11T12:02:52.327Z,85.39
2018-03-11T12:04:02.394Z,85.24
2018-03-11T12:05:12.463Z,85.63
2018-03-11T12:06:22.611Z,85.78
2018-03-11T12:07:32.728Z,85.78
2018-03-11T12:08:42.804Z,85.87
2018-03-11T12:09:52.883Z,85.87
2018-03-11T12:11:02.990Z,86.55
2018-03-11T12:12:13.104Z,86.55
2018-03-11T12:13:23.270Z,86.35
2018-03-11T12:14:32.823Z,86.55
2018-03-11T12:15:42.899Z,86.55
2018-03-11T12:16:52.706Z,86.45
2018-03-11T12:18:02.515Z,86.45
2018-03-11T12:19:12.323Z,85.87
2018-03-11T12:20:21.885Z,86.35
2018-03-11T12:21:31.704Z,85.97
2018-03-11T12:22:41.833Z,86.16
2018-03-11T12:23:51.906Z,86.74
2018-03-11T12:25:01.766Z,86.45
2018-03-11T12:26:11.600Z,86.45
2018-03-11T12:27:21.431Z,86.69
2018-03-11T12:28:31.252Z,86.35
2018-03-11T12:29:40.819Z,86.41
2018-03-11T12:30:50.951Z,86.65
2018-03-11T12:32:00.784Z,85.87
2018-03-11T12:33:10.879Z,86.07
2018-03-11T12:34:21.024Z,85.68
2018-03-11T12:35:31.431Z,85.39
2018-03-11T12:36:41.566Z,85.68
2018-03-11T12:37:51.665Z,85.78
2018-03-11T12:39:01.236Z,86.07
2018-03-11T12:40:11.380Z,85.87
2018-03-11T12:41:21.486Z,86.16
2018-03-11T12:42:31.357Z,86.07
2018-03-11T12:43:41.442Z,86.31
2018-03-11T12:44:51.547Z,86.69
2018-03-11T12:46:01.681Z,85.83
2018-03-11T12:47:11.872Z,85.34
2018-03-11T12:48:21.968Z,84.47
2018-03-11T12:49:32.066Z,84.52
2018-03-11T12:50:42.157Z,84.22
2018-03-11T12:51:51.956Z,84.61
2018-03-11T12:53:01.786Z,84.95
2018-03-11T12:54:11.885Z,85.43
2018-03-11T12:55:21.689Z,85.72
2018-03-11T12:56:31.501Z,85.91
2018-03-11T12:57:41.573Z,85.91
2018-03-11T12:58:51.656Z,86.3
2018-03-11T13:00:01.481Z,86.01
2018-03-11T13:01:11.599Z,86.26
2018-03-11T13:02:21.690Z,86.65
2018-03-11T13:03:31.296Z,86.74
2018-03-11T13:04:41.132Z,86.99
2018-03-11T13:05:50.698Z,86.89
2018-03-11T13:07:00.797Z,87.46
2018-03-11T13:08:10.898Z,86.89
2018-03-11T13:09:21.019Z,87.95
2018-03-11T13:10:30.629Z,87.76
2018-03-11T13:11:40.754Z,87.37
2018-03-11T13:12:50.585Z,87.33
2018-03-11T13:14:00.676Z,87.42
2018-03-11T13:15:10.579Z,87.52
2018-03-11T13:16:20.433Z,88.19
2018-03-11T13:17:30.005Z,88.1
2018-03-11T13:18:39.827Z,87.76
2018-03-11T13:19:49.383Z,87.96
2018-03-11T13:20:59.191Z,87.86
2018-03-11T13:22:08.503Z,87.86
2018-03-11T13:23:18.356Z,88.44
2018-03-11T13:24:28.442Z,88.24
2018-03-11T13:25:38.570Z,88.53
2018-03-11T13:26:48.896Z,87.96
2018-03-11T13:27:58.999Z,87.86
2018-03-11T13:29:09.091Z,87.48
2018-03-11T13:30:19.182Z,88.15
2018-03-11T13:31:28.995Z,87.29
2018-03-11T13:32:38.806Z,87.52
2018-03-11T13:33:48.659Z,87.42
2018-03-11T13:34:58.781Z,87.33
2018-03-11T13:36:08.600Z,87.71
2018-03-11T13:37:18.482Z,86.94
2018-03-11T13:38:28.467Z,86.94
2018-03-11T13:39:38.568Z,86.89
2018-03-11T13:40:48.661Z,87.08
2018-03-11T13:41:58.741Z,87.08
2018-03-11T13:43:08.369Z,87.71
2018-03-11T13:44:18.507Z,87.76
2018-03-11T13:45:28.388Z,87.27
2018-03-11T13:46:38.235Z,86.89
2018-03-11T13:47:48.316Z,87.56
2018-03-11T13:48:58.444Z,87.08
2018-03-11T13:50:08.542Z,87.37
2018-03-11T13:51:18.616Z,87.46
2018-03-11T13:52:28.730Z,87.18
2018-03-11T13:53:38.821Z,86.79
2018-03-11T13:54:48.717Z,87.08
2018-03-11T13:55:58.569Z,86.69
2018-03-11T13:57:08.728Z,86.07
2018-03-11T13:58:18.591Z,86.11
2018-03-11T13:59:28.426Z,85.82
2018-03-11T14:00:38.341Z,86.01
2018-03-11T14:01:48.484Z,86.01
2018-03-11T14:02:58.564Z,85.67
2018-03-11T14:04:08.455Z,84.8
2018-03-11T14:05:18.537Z,85.33
2018-03-11T14:06:27.840Z,84.27
2018-03-11T14:07:37.713Z,84.21
2018-03-11T14:08:47.526Z,84.69
2018-03-11T14:09:57.690Z,85.17
2018-03-11T14:11:07.788Z,85.17
2018-03-11T14:12:17.608Z,85.17
2018-03-11T14:13:27.804Z,85.22
2018-03-11T14:14:37.357Z,85.02
2018-03-11T14:15:47.475Z,84.83
2018-03-11T14:16:57.574Z,85.5
2018-03-11T14:18:07.386Z,85.8
2018-03-11T14:19:17.201Z,85.94
2018-03-11T14:20:26.760Z,86.91
2018-03-11T14:21:36.601Z,86.72
2018-03-11T14:22:46.430Z,87.1
2018-03-11T14:23:56.516Z,87.2
2018-03-11T14:25:06.408Z,86.96
2018-03-11T14:26:16.487Z,87.26
2018-03-11T14:27:26.575Z,87.2
2018-03-11T14:28:36.694Z,87.4
2018-03-11T14:29:46.513Z,87.16
2018-03-11T14:30:56.604Z,87.59
2018-03-11T14:32:06.704Z,87.64
2018-03-11T14:33:16.555Z,87.83
2018-03-11T14:34:26.383Z,87.83
2018-03-11T14:35:36.467Z,88.02
2018-03-11T14:36:46.566Z,88.37
2018-03-11T14:37:56.666Z,88.46
2018-03-11T14:39:06.809Z,88.85
2018-03-11T14:40:16.629Z,89.04
2018-03-11T14:41:26.723Z,89.33
2018-03-11T14:42:36.849Z,89.67
2018-03-11T14:43:46.681Z,90.16
2018-03-11T14:44:56.800Z,89.82
2018-03-11T14:46:06.892Z,89.82
2018-03-11T14:47:16.722Z,90.2
2018-03-11T14:48:26.783Z,90.16
2018-03-11T14:49:36.863Z,90.26
2018-03-11T14:50:46.717Z,90.64
2018-03-11T14:51:56.785Z,90.64
2018-03-11T14:53:06.867Z,90.16
2018-03-11T14:54:16.974Z,90.41
2018-03-11T14:55:27.060Z,90.41
2018-03-11T14:56:36.867Z,90.31
2018-03-11T14:57:46.688Z,90.59
2018-03-11T14:58:56.808Z,90.41
2018-03-11T15:00:06.894Z,90.12
2018-03-11T15:01:16.984Z,90.12
2018-03-11T15:02:26.813Z,90.21
2018-03-11T15:03:36.676Z,90.21
2018-03-11T15:04:46.516Z,89.92
2018-03-11T15:05:56.331Z,89.73
2018-03-11T15:07:05.879Z,90.12
2018-03-11T15:08:15.988Z,90.02
2018-03-11T15:09:26.069Z,89.92
2018-03-11T15:10:36.170Z,89.35
2018-03-11T15:11:45.980Z,89.35
2018-03-11T15:12:55.828Z,89.54
2018-03-11T15:14:05.695Z,89.15
2018-03-11T15:15:15.274Z,89.35
2018-03-11T15:16:25.392Z,89.35
2018-03-11T15:17:35.705Z,89.64
2018-03-11T15:18:45.519Z,89.64
2018-03-11T15:19:55.638Z,89.73
2018-03-11T15:21:05.739Z,89.73
2018-03-11T15:22:15.872Z,89.73
2018-03-11T15:23:25.672Z,89.83
2018-03-11T15:24:35.488Z,89.73
2018-03-11T15:25:45.349Z,89.64
2018-03-11T15:26:54.934Z,90.02
2018-03-11T15:28:04.747Z,90.12
2018-03-11T15:29:14.761Z,90.12
2018-03-11T15:30:24.848Z,90.02
2018-03-11T15:31:34.681Z,90.12
2018-03-11T15:32:44.770Z,90.31